sensor_id;sensor_type;location;lat;lon;timestamp;pressure;altitude;pressure_sealevel;temperature;humidity
19596;BME280;9945;46.010;8.946;2022-09-28T00:01:34;95826.13;;;14.50;nan
19596;BME280;9945;46.010;8.946;2022-09-28T00:04:02;95824.09;;;14.52;nan
19596;BME280;9945;46.010;8.946;2022-09-28T00:06:31;95814.75;;;14.56;nan
19596;BME280;9945;46.010;8.946;2022-09-28T00:08:58;95814.38;;;14.53;nan
19596;BME280;9945;46.010;8.946;2022-09-28T00:11:26;95828.34;;;14.60;nan
19596;BME280;9945;46.010;8.946;2022-09-28T00:13:55;95830.94;;;14.66;nan
19596;BME280;9945;46.010;8.946;2022-09-28T00:16:26;95824.66;;;14.67;nan
19596;BME280;9945;46.010;8.946;2022-09-28T00:18:54;95826.44;;;14.73;nan
19596;BME280;9945;46.010;8.946;2022-09-28T00:21:24;95828.31;;;14.66;nan
19596;BME280;9945;46.010;8.946;2022-09-28T00:23:52;95831.38;;;14.57;nan
19596;BME280;9945;46.010;8.946;2022-09-28T00:26:37;95819.84;;;14.51;nan
19596;BME280;9945;46.010;8.946;2022-09-28T00:29:06;95821.66;;;14.51;nan
19596;BME280;9945;46.010;8.946;2022-09-28T00:31:33;95830.97;;;14.47;nan
19596;BME280;9945;46.010;8.946;2022-09-28T00:34:01;95827.34;;;14.48;nan
19596;BME280;9945;46.010;8.946;2022-09-28T00:36:32;95822.09;;;14.41;nan
19596;BME280;9945;46.010;8.946;2022-09-28T00:39:03;95819.88;;;14.45;nan
19596;BME280;9945;46.010;8.946;2022-09-28T00:41:31;95816.81;;;14.48;nan
19596;BME280;9945;46.010;8.946;2022-09-28T00:47:14;95817.59;;;14.55;nan
19596;BME280;9945;46.010;8.946;2022-09-28T00:49:45;95809.72;;;14.48;nan
19596;BME280;9945;46.010;8.946;2022-09-28T00:52:21;95810.16;;;14.45;nan
19596;BME280;9945;46.010;8.946;2022-09-28T00:54:50;95805.88;;;14.51;nan
19596;BME280;9945;46.010;8.946;2022-09-28T00:57:18;95804.41;;;14.55;nan
19596;BME280;9945;46.010;8.946;2022-09-28T00:59:47;95805.44;;;14.60;nan
19596;BME280;9945;46.010;8.946;2022-09-28T01:02:14;95806.25;;;14.61;nan
19596;BME280;9945;46.010;8.946;2022-09-28T01:04:41;95800.38;;;14.59;nan
19596;BME280;9945;46.010;8.946;2022-09-28T01:07:07;95797.31;;;14.62;nan
19596;BME280;9945;46.010;8.946;2022-09-28T01:09:37;95810.91;;;14.59;nan
19596;BME280;9945;46.010;8.946;2022-09-28T01:12:05;95807.88;;;14.62;nan
19596;BME280;9945;46.010;8.946;2022-09-28T01:14:32;95795.75;;;14.54;nan
19596;BME280;9945;46.010;8.946;2022-09-28T01:17:05;95790.06;;;14.51;nan
19596;BME280;9945;46.010;8.946;2022-09-28T01:19:59;95792.69;;;14.51;nan
19596;BME280;9945;46.010;8.946;2022-09-28T01:25:32;95788.22;;;14.58;nan
19596;BME280;9945;46.010;8.946;2022-09-28T01:28:10;95794.13;;;14.53;nan
19596;BME280;9945;46.010;8.946;2022-09-28T01:30:43;95786.81;;;14.49;nan
19596;BME280;9945;46.010;8.946;2022-09-28T01:33:15;95777.31;;;14.48;nan
19596;BME280;9945;46.010;8.946;2022-09-28T01:35:52;95781.59;;;14.42;nan
19596;BME280;9945;46.010;8.946;2022-09-28T01:38:24;95791.72;;;14.45;nan
19596;BME280;9945;46.010;8.946;2022-09-28T01:40:53;95792.50;;;14.52;nan
19596;BME280;9945;46.010;8.946;2022-09-28T01:43:24;95789.44;;;14.55;nan
19596;BME280;9945;46.010;8.946;2022-09-28T01:45:55;95796.13;;;14.58;nan
19596;BME280;9945;46.010;8.946;2022-09-28T01:48:30;95794.69;;;14.55;nan
19596;BME280;9945;46.010;8.946;2022-09-28T01:51:02;95785.56;;;14.58;nan
19596;BME280;9945;46.010;8.946;2022-09-28T01:53:32;95778.09;;;14.55;nan
19596;BME280;9945;46.010;8.946;2022-09-28T01:56:06;95776.28;;;14.49;nan
19596;BME280;9945;46.010;8.946;2022-09-28T01:58:41;95760.91;;;14.46;nan
19596;BME280;9945;46.010;8.946;2022-09-28T02:01:13;95766.97;;;14.46;nan
19596;BME280;9945;46.010;8.946;2022-09-28T02:03:47;95773.88;;;14.41;nan
19596;BME280;9945;46.010;8.946;2022-09-28T02:06:21;95765.56;;;14.37;nan
19596;BME280;9945;46.010;8.946;2022-09-28T02:08:52;95762.34;;;14.35;nan
19596;BME280;9945;46.010;8.946;2022-09-28T02:11:22;95768.81;;;14.39;nan
19596;BME280;9945;46.010;8.946;2022-09-28T02:13:53;95761.94;;;14.45;nan
19596;BME280;9945;46.010;8.946;2022-09-28T02:16:29;95757.66;;;14.50;nan
19596;BME280;9945;46.010;8.946;2022-09-28T02:18:58;95757.25;;;14.53;nan
19596;BME280;9945;46.010;8.946;2022-09-28T02:21:27;95764.53;;;14.51;nan
19596;BME280;9945;46.010;8.946;2022-09-28T02:23:57;95763.31;;;14.54;nan
19596;BME280;9945;46.010;8.946;2022-09-28T02:26:29;95764.78;;;14.43;nan
19596;BME280;9945;46.010;8.946;2022-09-28T02:28:59;95760.09;;;14.38;nan
19596;BME280;9945;46.010;8.946;2022-09-28T02:31:26;95771.03;;;14.42;nan
19596;BME280;9945;46.010;8.946;2022-09-28T02:33:54;95783.00;;;14.45;nan
19596;BME280;9945;46.010;8.946;2022-09-28T02:36:23;95779.56;;;14.44;nan
19596;BME280;9945;46.010;8.946;2022-09-28T02:38:51;95774.88;;;14.46;nan
19596;BME280;9945;46.010;8.946;2022-09-28T02:41:27;95766.34;;;14.37;nan
19596;BME280;9945;46.010;8.946;2022-09-28T02:44:06;95768.63;;;14.34;nan
19596;BME280;9945;46.010;8.946;2022-09-28T02:46:42;95771.44;;;14.32;nan
19596;BME280;9945;46.010;8.946;2022-09-28T02:49:20;95765.38;;;14.32;nan
19596;BME280;9945;46.010;8.946;2022-09-28T02:52:01;95767.81;;;14.33;nan
19596;BME280;9945;46.010;8.946;2022-09-28T02:54:42;95766.59;;;14.36;nan
19596;BME280;9945;46.010;8.946;2022-09-28T02:57:23;95761.09;;;14.37;nan
19596;BME280;9945;46.010;8.946;2022-09-28T03:00:02;95762.94;;;14.37;nan
19596;BME280;9945;46.010;8.946;2022-09-28T03:02:32;95763.53;;;14.32;nan
19596;BME280;9945;46.010;8.946;2022-09-28T03:05:14;95757.28;;;14.27;nan
19596;BME280;9945;46.010;8.946;2022-09-28T03:07:49;95752.47;;;14.11;nan
19596;BME280;9945;46.010;8.946;2022-09-28T03:10:24;95755.50;;;14.08;nan
19596;BME280;9945;46.010;8.946;2022-09-28T03:12:54;95747.22;;;14.11;nan
19596;BME280;9945;46.010;8.946;2022-09-28T03:15:26;95747.22;;;14.11;nan
19596;BME280;9945;46.010;8.946;2022-09-28T03:17:53;95751.25;;;14.13;nan
19596;BME280;9945;46.010;8.946;2022-09-28T03:20:20;95754.47;;;14.15;nan
19596;BME280;9945;46.010;8.946;2022-09-28T03:22:47;95752.25;;;14.19;nan
19596;BME280;9945;46.010;8.946;2022-09-28T03:25:14;95764.59;;;14.18;nan
19596;BME280;9945;46.010;8.946;2022-09-28T03:27:41;95751.66;;;14.17;nan
19596;BME280;9945;46.010;8.946;2022-09-28T03:30:09;95757.31;;;14.14;nan
19596;BME280;9945;46.010;8.946;2022-09-28T03:32:37;95764.41;;;14.13;nan
19596;BME280;9945;46.010;8.946;2022-09-28T03:35:06;95755.31;;;14.09;nan
19596;BME280;9945;46.010;8.946;2022-09-28T03:37:34;95758.34;;;14.06;nan
19596;BME280;9945;46.010;8.946;2022-09-28T03:40:02;95758.97;;;14.08;nan
19596;BME280;9945;46.010;8.946;2022-09-28T03:42:29;95759.97;;;14.07;nan
19596;BME280;9945;46.010;8.946;2022-09-28T03:44:56;95760.97;;;14.06;nan
19596;BME280;9945;46.010;8.946;2022-09-28T03:47:23;95763.44;;;14.01;nan
19596;BME280;9945;46.010;8.946;2022-09-28T03:49:51;95759.56;;;13.97;nan
19596;BME280;9945;46.010;8.946;2022-09-28T03:52:18;95765.03;;;13.95;nan
19596;BME280;9945;46.010;8.946;2022-09-28T03:54:45;95774.38;;;13.91;nan
19596;BME280;9945;46.010;8.946;2022-09-28T03:57:12;95769.50;;;13.82;nan
19596;BME280;9945;46.010;8.946;2022-09-28T03:59:39;95775.78;;;13.81;nan
19596;BME280;9945;46.010;8.946;2022-09-28T04:02:06;95770.53;;;13.81;nan
19596;BME280;9945;46.010;8.946;2022-09-28T04:04:33;95774.97;;;13.80;nan
19596;BME280;9945;46.010;8.946;2022-09-28T04:07:01;95771.72;;;13.78;nan
19596;BME280;9945;46.010;8.946;2022-09-28T04:09:28;95773.59;;;13.78;nan
19596;BME280;9945;46.010;8.946;2022-09-28T04:11:55;95772.34;;;13.74;nan
19596;BME280;9945;46.010;8.946;2022-09-28T04:14:22;95777.41;;;13.75;nan
19596;BME280;9945;46.010;8.946;2022-09-28T04:16:49;95771.53;;;13.73;nan
19596;BME280;9945;46.010;8.946;2022-09-28T04:19:18;95777.63;;;13.67;nan
19596;BME280;9945;46.010;8.946;2022-09-28T04:21:46;95774.19;;;13.67;nan
19596;BME280;9945;46.010;8.946;2022-09-28T04:24:16;95768.13;;;13.59;nan
19596;BME280;9945;46.010;8.946;2022-09-28T04:26:44;95760.81;;;13.61;nan
19596;BME280;9945;46.010;8.946;2022-09-28T04:29:11;95764.06;;;13.57;nan
19596;BME280;9945;46.010;8.946;2022-09-28T04:31:43;95762.44;;;13.62;nan
19596;BME280;9945;46.010;8.946;2022-09-28T04:34:11;95763.84;;;13.72;nan
19596;BME280;9945;46.010;8.946;2022-09-28T04:36:39;95766.69;;;13.77;nan
19596;BME280;9945;46.010;8.946;2022-09-28T04:39:06;95769.09;;;13.78;nan
19596;BME280;9945;46.010;8.946;2022-09-28T04:41:34;95768.72;;;13.75;nan
19596;BME280;9945;46.010;8.946;2022-09-28T04:44:02;95772.38;;;13.67;nan
19596;BME280;9945;46.010;8.946;2022-09-28T04:46:29;95775.00;;;13.67;nan
19596;BME280;9945;46.010;8.946;2022-09-28T04:48:56;95774.38;;;13.72;nan
19596;BME280;9945;46.010;8.946;2022-09-28T04:51:23;95774.59;;;13.77;nan
19596;BME280;9945;46.010;8.946;2022-09-28T04:53:49;95777.81;;;13.79;nan
19596;BME280;9945;46.010;8.946;2022-09-28T04:56:17;95771.13;;;13.83;nan
19596;BME280;9945;46.010;8.946;2022-09-28T04:58:46;95774.16;;;13.80;nan
19596;BME280;9945;46.010;8.946;2022-09-28T05:01:15;95767.72;;;13.69;nan
19596;BME280;9945;46.010;8.946;2022-09-28T05:03:42;95772.16;;;13.62;nan
19596;BME280;9945;46.010;8.946;2022-09-28T05:06:12;95769.53;;;13.55;nan
19596;BME280;9945;46.010;8.946;2022-09-28T05:08:39;95774.78;;;13.55;nan
19596;BME280;9945;46.010;8.946;2022-09-28T05:11:09;95768.31;;;13.51;nan
19596;BME280;9945;46.010;8.946;2022-09-28T05:13:39;95774.16;;;13.53;nan
19596;BME280;9945;46.010;8.946;2022-09-28T05:16:08;95777.22;;;13.57;nan
19596;BME280;9945;46.010;8.946;2022-09-28T05:18:35;95778.41;;;13.61;nan
19596;BME280;9945;46.010;8.946;2022-09-28T05:21:02;95782.88;;;13.67;nan
19596;BME280;9945;46.010;8.946;2022-09-28T05:23:30;95773.97;;;13.75;nan
19596;BME280;9945;46.010;8.946;2022-09-28T05:26:00;95768.91;;;13.80;nan
19596;BME280;9945;46.010;8.946;2022-09-28T05:28:28;95766.06;;;13.88;nan
19596;BME280;9945;46.010;8.946;2022-09-28T05:30:59;95771.09;;;13.96;nan
19596;BME280;9945;46.010;8.946;2022-09-28T05:33:29;95772.72;;;14.03;nan
19596;BME280;9945;46.010;8.946;2022-09-28T05:35:56;95776.16;;;13.97;nan
19596;BME280;9945;46.010;8.946;2022-09-28T05:38:23;95772.94;;;13.95;nan
19596;BME280;9945;46.010;8.946;2022-09-28T05:40:50;95762.00;;;14.05;nan
19596;BME280;9945;46.010;8.946;2022-09-28T05:43:17;95763.81;;;14.11;nan
19596;BME280;9945;46.010;8.946;2022-09-28T05:45:44;95757.72;;;14.04;nan
19596;BME280;9945;46.010;8.946;2022-09-28T05:48:11;95760.78;;;14.08;nan
19596;BME280;9945;46.010;8.946;2022-09-28T05:50:39;95759.38;;;14.12;nan
19596;BME280;9945;46.010;8.946;2022-09-28T05:53:08;95761.34;;;14.23;nan
19596;BME280;9945;46.010;8.946;2022-09-28T05:55:36;95759.72;;;14.28;nan
19596;BME280;9945;46.010;8.946;2022-09-28T05:58:05;95756.06;;;14.36;nan
19596;BME280;9945;46.010;8.946;2022-09-28T06:00:34;95741.69;;;14.45;nan
19596;BME280;9945;46.010;8.946;2022-09-28T06:03:03;95737.81;;;14.41;nan
19596;BME280;9945;46.010;8.946;2022-09-28T06:05:33;95742.50;;;14.46;nan
19596;BME280;9945;46.010;8.946;2022-09-28T06:08:02;95742.25;;;14.47;nan
19596;BME280;9945;46.010;8.946;2022-09-28T06:10:30;95752.78;;;14.47;nan
19596;BME280;9945;46.010;8.946;2022-09-28T06:12:57;95747.97;;;14.44;nan
19596;BME280;9945;46.010;8.946;2022-09-28T06:15:26;95745.94;;;14.26;nan
19596;BME280;9945;46.010;8.946;2022-09-28T06:17:57;95747.16;;;14.24;nan
19596;BME280;9945;46.010;8.946;2022-09-28T06:20:25;95742.91;;;14.23;nan
19596;BME280;9945;46.010;8.946;2022-09-28T06:22:52;95745.72;;;14.34;nan
19596;BME280;9945;46.010;8.946;2022-09-28T06:25:21;95755.44;;;14.41;nan
19596;BME280;9945;46.010;8.946;2022-09-28T06:27:56;95753.19;;;14.51;nan
19596;BME280;9945;46.010;8.946;2022-09-28T06:30:24;95751.75;;;14.61;nan
19596;BME280;9945;46.010;8.946;2022-09-28T06:32:53;95757.41;;;14.58;nan
19596;BME280;9945;46.010;8.946;2022-09-28T06:35:21;95760.78;;;14.72;nan
19596;BME280;9945;46.010;8.946;2022-09-28T06:37:48;95766.66;;;14.74;nan
19596;BME280;9945;46.010;8.946;2022-09-28T06:40:15;95761.22;;;14.69;nan
19596;BME280;9945;46.010;8.946;2022-09-28T06:42:43;95762.84;;;14.70;nan
19596;BME280;9945;46.010;8.946;2022-09-28T06:45:10;95751.06;;;14.72;nan
19596;BME280;9945;46.010;8.946;2022-09-28T06:47:37;95758.16;;;14.72;nan
19596;BME280;9945;46.010;8.946;2022-09-28T06:50:06;95756.91;;;14.81;nan
19596;BME280;9945;46.010;8.946;2022-09-28T06:52:37;95744.63;;;15.00;nan
19596;BME280;9945;46.010;8.946;2022-09-28T06:55:04;95750.22;;;15.17;nan
19596;BME280;9945;46.010;8.946;2022-09-28T06:57:32;95762.13;;;15.26;nan
19596;BME280;9945;46.010;8.946;2022-09-28T07:00:00;95765.88;;;15.43;nan
19596;BME280;9945;46.010;8.946;2022-09-28T07:02:27;95778.19;;;15.56;nan
19596;BME280;9945;46.010;8.946;2022-09-28T07:04:55;95784.63;;;15.60;nan
19596;BME280;9945;46.010;8.946;2022-09-28T07:07:23;95786.19;;;15.67;nan
19596;BME280;9945;46.010;8.946;2022-09-28T07:09:52;95784.91;;;15.76;nan
19596;BME280;9945;46.010;8.946;2022-09-28T07:12:20;95784.28;;;15.81;nan
19596;BME280;9945;46.010;8.946;2022-09-28T07:14:48;95791.13;;;15.64;nan
19596;BME280;9945;46.010;8.946;2022-09-28T07:17:22;95797.84;;;15.60;nan
19596;BME280;9945;46.010;8.946;2022-09-28T07:19:49;95793.53;;;15.65;nan
19596;BME280;9945;46.010;8.946;2022-09-28T07:22:17;95801.19;;;15.73;nan
19596;BME280;9945;46.010;8.946;2022-09-28T07:24:45;95800.41;;;15.66;nan
19596;BME280;9945;46.010;8.946;2022-09-28T07:27:13;95798.50;;;15.55;nan
19596;BME280;9945;46.010;8.946;2022-09-28T07:29:40;95801.28;;;15.60;nan
19596;BME280;9945;46.010;8.946;2022-09-28T07:32:07;95803.75;;;15.48;nan
19596;BME280;9945;46.010;8.946;2022-09-28T07:34:35;95804.16;;;15.52;nan
19596;BME280;9945;46.010;8.946;2022-09-28T07:37:06;95809.34;;;15.65;nan
19596;BME280;9945;46.010;8.946;2022-09-28T07:39:35;95805.47;;;15.93;nan
19596;BME280;9945;46.010;8.946;2022-09-28T07:42:23;95803.63;;;16.18;nan
19596;BME280;9945;46.010;8.946;2022-09-28T07:44:49;95814.00;;;16.38;nan
19596;BME280;9945;46.010;8.946;2022-09-28T07:47:16;95808.97;;;16.54;nan
19596;BME280;9945;46.010;8.946;2022-09-28T07:49:44;95802.38;;;16.63;nan
19596;BME280;9945;46.010;8.946;2022-09-28T07:52:12;95802.47;;;16.75;nan
19596;BME280;9945;46.010;8.946;2022-09-28T07:54:39;95813.09;;;16.87;nan
19596;BME280;9945;46.010;8.946;2022-09-28T07:57:06;95812.78;;;16.95;nan
19596;BME280;9945;46.010;8.946;2022-09-28T07:59:33;95825.19;;;16.94;nan
19596;BME280;9945;46.010;8.946;2022-09-28T08:01:59;95821.94;;;17.11;nan
19596;BME280;9945;46.010;8.946;2022-09-28T08:04:26;95822.13;;;17.27;nan
19596;BME280;9945;46.010;8.946;2022-09-28T08:06:55;95821.75;;;17.42;nan
19596;BME280;9945;46.010;8.946;2022-09-28T08:09:24;95815.44;;;17.43;nan
19596;BME280;9945;46.010;8.946;2022-09-28T08:11:51;95817.38;;;17.48;nan
19596;BME280;9945;46.010;8.946;2022-09-28T08:14:19;95822.56;;;17.54;nan
19596;BME280;9945;46.010;8.946;2022-09-28T08:16:46;95820.22;;;17.64;nan
19596;BME280;9945;46.010;8.946;2022-09-28T08:19:13;95814.63;;;17.84;nan
19596;BME280;9945;46.010;8.946;2022-09-28T08:21:40;95822.47;;;18.14;nan
19596;BME280;9945;46.010;8.946;2022-09-28T08:24:14;95816.59;;;18.24;nan
19596;BME280;9945;46.010;8.946;2022-09-28T08:26:41;95812.81;;;18.66;nan
19596;BME280;9945;46.010;8.946;2022-09-28T08:29:08;95821.31;;;18.80;nan
19596;BME280;9945;46.010;8.946;2022-09-28T08:31:35;95822.13;;;18.80;nan
19596;BME280;9945;46.010;8.946;2022-09-28T08:34:02;95826.44;;;18.98;nan
19596;BME280;9945;46.010;8.946;2022-09-28T08:36:29;95825.09;;;18.96;nan
19596;BME280;9945;46.010;8.946;2022-09-28T08:38:56;95815.88;;;19.26;nan
19596;BME280;9945;46.010;8.946;2022-09-28T08:41:32;95814.78;;;19.68;nan
19596;BME280;9945;46.010;8.946;2022-09-28T08:44:14;95816.91;;;20.32;nan
19596;BME280;9945;46.010;8.946;2022-09-28T08:46:50;95820.59;;;20.65;nan
19596;BME280;9945;46.010;8.946;2022-09-28T08:49:23;95814.91;;;21.00;nan
19596;BME280;9945;46.010;8.946;2022-09-28T08:51:58;95813.31;;;21.21;nan
19596;BME280;9945;46.010;8.946;2022-09-28T08:54:32;95822.59;;;22.68;nan
19596;BME280;9945;46.010;8.946;2022-09-28T08:57:05;95807.88;;;23.12;nan
19596;BME280;9945;46.010;8.946;2022-09-28T08:59:42;95803.94;;;23.30;nan
19596;BME280;9945;46.010;8.946;2022-09-28T09:02:15;95794.28;;;23.24;nan
19596;BME280;9945;46.010;8.946;2022-09-28T09:04:43;95802.91;;;23.46;nan
19596;BME280;9945;46.010;8.946;2022-09-28T09:07:24;95794.50;;;25.10;nan
19596;BME280;9945;46.010;8.946;2022-09-28T09:10:02;95807.63;;;25.71;nan
19596;BME280;9945;46.010;8.946;2022-09-28T09:12:41;95793.41;;;26.96;nan
19596;BME280;9945;46.010;8.946;2022-09-28T09:15:20;95797.81;;;28.69;nan
19596;BME280;9945;46.010;8.946;2022-09-28T09:18:00;95796.25;;;30.31;nan
19596;BME280;9945;46.010;8.946;2022-09-28T09:20:38;95780.13;;;29.95;nan
19596;BME280;9945;46.010;8.946;2022-09-28T09:23:11;95785.38;;;32.23;nan
19596;BME280;9945;46.010;8.946;2022-09-28T09:25:41;95781.31;;;33.40;nan
19596;BME280;9945;46.010;8.946;2022-09-28T09:28:29;95782.81;;;36.87;nan
19596;BME280;9945;46.010;8.946;2022-09-28T09:31:06;95785.56;;;37.34;nan
19596;BME280;9945;46.010;8.946;2022-09-28T09:33:46;95773.25;;;37.43;nan
19596;BME280;9945;46.010;8.946;2022-09-28T09:36:30;95777.56;;;38.14;nan
19596;BME280;9945;46.010;8.946;2022-09-28T09:39:11;95788.69;;;41.29;nan
19596;BME280;9945;46.010;8.946;2022-09-28T09:41:53;95767.88;;;37.47;nan
19596;BME280;9945;46.010;8.946;2022-09-28T09:44:48;95767.78;;;34.47;nan
19596;BME280;9945;46.010;8.946;2022-09-28T09:47:19;95766.25;;;32.75;nan
19596;BME280;9945;46.010;8.946;2022-09-28T09:49:49;95764.34;;;31.94;nan
19596;BME280;9945;46.010;8.946;2022-09-28T09:52:23;95758.31;;;30.67;nan
19596;BME280;9945;46.010;8.946;2022-09-28T09:54:54;95746.69;;;29.19;nan
19596;BME280;9945;46.010;8.946;2022-09-28T09:57:29;95749.22;;;29.02;nan
19596;BME280;9945;46.010;8.946;2022-09-28T10:00:01;95739.31;;;29.38;nan
19596;BME280;9945;46.010;8.946;2022-09-28T10:02:31;95728.31;;;30.15;nan
19596;BME280;9945;46.010;8.946;2022-09-28T10:05:01;95726.81;;;32.86;nan
19596;BME280;9945;46.010;8.946;2022-09-28T10:07:41;95734.22;;;33.06;nan
19596;BME280;9945;46.010;8.946;2022-09-28T10:10:11;95744.75;;;35.91;nan
19596;BME280;9945;46.010;8.946;2022-09-28T10:12:40;95729.56;;;35.25;nan
19596;BME280;9945;46.010;8.946;2022-09-28T10:15:22;95746.63;;;36.90;nan
19596;BME280;9945;46.010;8.946;2022-09-28T10:17:49;95736.91;;;36.61;nan
19596;BME280;9945;46.010;8.946;2022-09-28T10:20:16;95738.47;;;36.46;nan
19596;BME280;9945;46.010;8.946;2022-09-28T10:22:43;95730.31;;;35.90;nan
19596;BME280;9945;46.010;8.946;2022-09-28T10:25:11;95730.38;;;34.77;nan
19596;BME280;9945;46.010;8.946;2022-09-28T10:27:41;95721.38;;;34.89;nan
19596;BME280;9945;46.010;8.946;2022-09-28T10:30:17;95740.94;;;36.35;nan
19596;BME280;9945;46.010;8.946;2022-09-28T10:32:46;95773.59;;;39.98;nan
19596;BME280;9945;46.010;8.946;2022-09-28T10:35:22;95733.56;;;39.11;nan
19596;BME280;9945;46.010;8.946;2022-09-28T10:37:53;95755.44;;;41.01;nan
19596;BME280;9945;46.010;8.946;2022-09-28T10:40:32;95750.06;;;43.59;nan
19596;BME280;9945;46.010;8.946;2022-09-28T10:43:01;95759.00;;;47.20;nan
19596;BME280;9945;46.010;8.946;2022-09-28T10:45:33;95757.41;;;48.45;nan
19596;BME280;9945;46.010;8.946;2022-09-28T10:48:04;95733.41;;;43.84;nan
19596;BME280;9945;46.010;8.946;2022-09-28T10:50:32;95722.34;;;38.96;nan
19596;BME280;9945;46.010;8.946;2022-09-28T10:53:17;95708.13;;;37.45;nan
19596;BME280;9945;46.010;8.946;2022-09-28T10:55:59;95717.81;;;39.90;nan
19596;BME280;9945;46.010;8.946;2022-09-28T10:58:34;95727.97;;;39.86;nan
19596;BME280;9945;46.010;8.946;2022-09-28T11:01:07;95706.97;;;39.97;nan
19596;BME280;9945;46.010;8.946;2022-09-28T11:03:46;95700.22;;;39.61;nan
19596;BME280;9945;46.010;8.946;2022-09-28T11:06:15;95703.78;;;39.95;nan
19596;BME280;9945;46.010;8.946;2022-09-28T11:08:49;95698.19;;;41.06;nan
19596;BME280;9945;46.010;8.946;2022-09-28T11:11:17;95702.34;;;39.75;nan
19596;BME280;9945;46.010;8.946;2022-09-28T11:13:46;95701.16;;;40.39;nan
19596;BME280;9945;46.010;8.946;2022-09-28T11:16:24;95691.13;;;38.52;nan
19596;BME280;9945;46.010;8.946;2022-09-28T11:18:53;95686.44;;;37.91;nan
19596;BME280;9945;46.010;8.946;2022-09-28T11:21:25;95690.31;;;34.90;nan
19596;BME280;9945;46.010;8.946;2022-09-28T11:23:59;95666.44;;;33.19;nan
19596;BME280;9945;46.010;8.946;2022-09-28T11:26:40;95664.44;;;31.93;nan
19596;BME280;9945;46.010;8.946;2022-09-28T11:29:22;95661.06;;;32.89;nan
19596;BME280;9945;46.010;8.946;2022-09-28T11:31:52;95657.56;;;31.95;nan
19596;BME280;9945;46.010;8.946;2022-09-28T11:34:31;95649.28;;;31.06;nan
19596;BME280;9945;46.010;8.946;2022-09-28T11:37:17;95635.19;;;32.24;nan
19596;BME280;9945;46.010;8.946;2022-09-28T11:39:55;95643.50;;;32.19;nan
19596;BME280;9945;46.010;8.946;2022-09-28T11:42:32;95649.91;;;32.53;nan
19596;BME280;9945;46.010;8.946;2022-09-28T11:45:21;95643.97;;;34.74;nan
19596;BME280;9945;46.010;8.946;2022-09-28T11:47:55;95647.56;;;35.83;nan
19596;BME280;9945;46.010;8.946;2022-09-28T11:50:37;95637.38;;;38.44;nan
19596;BME280;9945;46.010;8.946;2022-09-28T11:53:12;95650.53;;;40.85;nan
19596;BME280;9945;46.010;8.946;2022-09-28T11:55:45;95641.72;;;38.71;nan
19596;BME280;9945;46.010;8.946;2022-09-28T11:58:21;95640.28;;;40.30;nan
19596;BME280;9945;46.010;8.946;2022-09-28T12:00:53;95646.72;;;41.03;nan
19596;BME280;9945;46.010;8.946;2022-09-28T12:03:29;95640.34;;;40.85;nan
19596;BME280;9945;46.010;8.946;2022-09-28T12:06:00;95639.50;;;40.77;nan
19596;BME280;9945;46.010;8.946;2022-09-28T12:08:30;95628.38;;;38.20;nan
19596;BME280;9945;46.010;8.946;2022-09-28T12:11:01;95635.13;;;38.49;nan
19596;BME280;9945;46.010;8.946;2022-09-28T12:13:36;95636.94;;;38.42;nan
19596;BME280;9945;46.010;8.946;2022-09-28T12:16:07;95634.22;;;38.42;nan
19596;BME280;9945;46.010;8.946;2022-09-28T12:18:42;95631.56;;;37.61;nan
19596;BME280;9945;46.010;8.946;2022-09-28T12:21:24;95635.59;;;36.62;nan
19596;BME280;9945;46.010;8.946;2022-09-28T12:23:55;95639.78;;;34.77;nan
19596;BME280;9945;46.010;8.946;2022-09-28T12:26:32;95632.94;;;34.46;nan
19596;BME280;9945;46.010;8.946;2022-09-28T12:29:01;95639.78;;;34.77;nan
19596;BME280;9945;46.010;8.946;2022-09-28T12:31:35;95638.81;;;34.73;nan
19596;BME280;9945;46.010;8.946;2022-09-28T12:34:04;95632.81;;;35.04;nan
19596;BME280;9945;46.010;8.946;2022-09-28T12:36:41;95633.94;;;34.54;nan
19596;BME280;9945;46.010;8.946;2022-09-28T12:39:22;95629.44;;;34.58;nan
19596;BME280;9945;46.010;8.946;2022-09-28T12:42:02;95625.50;;;33.98;nan
19596;BME280;9945;46.010;8.946;2022-09-28T12:44:52;95627.63;;;35.66;nan
19596;BME280;9945;46.010;8.946;2022-09-28T12:47:38;95621.06;;;36.27;nan
19596;BME280;9945;46.010;8.946;2022-09-28T12:50:18;95618.91;;;36.99;nan
19596;BME280;9945;46.010;8.946;2022-09-28T12:52:55;95605.38;;;35.92;nan
19596;BME280;9945;46.010;8.946;2022-09-28T12:55:38;95608.69;;;34.90;nan
19596;BME280;9945;46.010;8.946;2022-09-28T12:58:20;95596.53;;;32.07;nan
19596;BME280;9945;46.010;8.946;2022-09-28T13:00:57;95588.63;;;30.55;nan
19596;BME280;9945;46.010;8.946;2022-09-28T13:03:52;95593.31;;;28.68;nan
19596;BME280;9945;46.010;8.946;2022-09-28T13:06:36;95593.88;;;27.55;nan
19596;BME280;9945;46.010;8.946;2022-09-28T13:09:19;95577.59;;;26.77;nan
19596;BME280;9945;46.010;8.946;2022-09-28T13:11:58;95582.34;;;26.42;nan
19596;BME280;9945;46.010;8.946;2022-09-28T13:14:46;95568.09;;;25.99;nan
19596;BME280;9945;46.010;8.946;2022-09-28T13:17:23;95579.41;;;26.20;nan
19596;BME280;9945;46.010;8.946;2022-09-28T13:19:57;95568.31;;;25.79;nan
19596;BME280;9945;46.010;8.946;2022-09-28T13:22:34;95563.75;;;25.50;nan
19596;BME280;9945;46.010;8.946;2022-09-28T13:25:10;95559.94;;;25.27;nan
19596;BME280;9945;46.010;8.946;2022-09-28T13:27:41;95557.25;;;24.94;nan
19596;BME280;9945;46.010;8.946;2022-09-28T13:30:12;95559.66;;;24.56;nan
19596;BME280;9945;46.010;8.946;2022-09-28T13:32:40;95561.13;;;24.18;nan
19596;BME280;9945;46.010;8.946;2022-09-28T13:35:11;95562.53;;;24.00;nan
19596;BME280;9945;46.010;8.946;2022-09-28T13:37:40;95562.59;;;23.85;nan
19596;BME280;9945;46.010;8.946;2022-09-28T13:40:07;95566.66;;;23.67;nan
19596;BME280;9945;46.010;8.946;2022-09-28T13:42:55;95568.31;;;23.38;nan
19596;BME280;9945;46.010;8.946;2022-09-28T13:45:32;95560.03;;;22.94;nan
19596;BME280;9945;46.010;8.946;2022-09-28T13:48:12;95558.13;;;22.74;nan
19596;BME280;9945;46.010;8.946;2022-09-28T13:51:13;95557.81;;;22.55;nan
19596;BME280;9945;46.010;8.946;2022-09-28T13:54:00;95549.28;;;22.43;nan
19596;BME280;9945;46.010;8.946;2022-09-28T13:56:35;95559.31;;;22.16;nan
19596;BME280;9945;46.010;8.946;2022-09-28T13:59:12;95567.81;;;22.13;nan
19596;BME280;9945;46.010;8.946;2022-09-28T14:01:41;95567.81;;;22.08;nan
19596;BME280;9945;46.010;8.946;2022-09-28T14:04:14;95565.47;;;22.21;nan